Time;durP1;ratioP1;P1;durP2;ratioP2;P2;SDS_P1;SDS_P2;PMS_P1;PMS_P2;Temp;Humidity;BMP_temperature;BMP_pressure;BME280_temperature;BME280_humidity;BME280_pressure;Samples;Min_cycle;Max_cycle;Signal;HPM_P1;HPM_P2
2023/04/30 00:00:16;;;;;;;31.70;15.95;;;;;;;;;;4919466;28;20122;-80
2023/04/30 00:02:43;;;;;;;24.88;15.10;;;;;;;;;;4933814;28;20044;-81
2023/04/30 00:05:09;;;;;;;26.48;14.80;;;;;;;;;;4936665;28;20044;-83
2023/04/30 00:07:40;;;;;;;25.63;15.63;;;;;;;;;;4935473;29;20048;-81
2023/04/30 00:10:08;;;;;;;30.52;15.77;;;;;;;;;;4936782;28;20504;-80
2023/04/30 00:12:35;;;;;;;29.88;16.85;;;;;;;;;;4938579;28;20047;-82
2023/04/30 00:15:02;;;;;;;26.48;16.00;;;;;;;;;;4936626;28;20142;-79
2023/04/30 00:17:28;;;;;;;27.17;15.65;;;;;;;;;;4938896;28;20070;-81
2023/04/30 00:19:55;;;;;;;27.20;15.82;;;;;;;;;;4941494;28;20055;-82
2023/04/30 00:22:22;;;;;;;24.55;15.38;;;;;;;;;;4940539;28;20058;-83
2023/04/30 00:24:49;;;;;;;32.95;15.50;;;;;;;;;;4940748;28;20062;-79
2023/04/30 00:27:15;;;;;;;25.30;15.90;;;;;;;;;;4939475;28;20046;-84
2023/04/30 00:29:42;;;;;;;28.33;16.15;;;;;;;;;;4945611;28;20127;-82
2023/04/30 00:32:08;;;;;;;29.45;15.63;;;;;;;;;;4924051;29;20058;-81
2023/04/30 00:34:35;;;;;;;27.30;15.48;;;;;;;;;;4924040;29;20103;-81
2023/04/30 00:37:02;;;;;;;27.38;16.58;;;;;;;;;;4920098;29;20111;-79
2023/04/30 00:39:31;;;;;;;28.23;15.90;;;;;;;;;;4935644;29;20039;-82
2023/04/30 00:41:58;;;;;;;27.33;16.00;;;;;;;;;;4934756;29;20124;-85
2023/04/30 00:44:25;;;;;;;26.30;15.73;;;;;;;;;;4920795;29;20043;-82
2023/04/30 00:46:51;;;;;;;27.35;16.25;;;;;;;;;;4936882;29;20052;-80
2023/04/30 00:49:19;;;;;;;27.90;14.93;;;;;;;;;;4930363;29;20059;-82
2023/04/30 00:51:46;;;;;;;25.75;14.85;;;;;;;;;;4932518;29;20048;-82
2023/04/30 00:54:13;;;;;;;23.88;13.80;;;;;;;;;;4963837;28;20043;-82
2023/04/30 00:56:40;;;;;;;26.63;13.40;;;;;;;;;;4949040;28;20040;-80
2023/04/30 00:59:07;;;;;;;26.10;13.45;;;;;;;;;;4960930;28;20055;-83
2023/04/30 01:01:33;;;;;;;28.60;13.73;;;;;;;;;;4974545;28;20504;-85
2023/04/30 01:04:00;;;;;;;25.30;14.63;;;;;;;;;;4974073;28;20079;-80
2023/04/30 01:06:27;;;;;;;27.50;13.88;;;;;;;;;;4957555;28;20045;-82
2023/04/30 01:08:53;;;;;;;22.90;13.60;;;;;;;;;;4972269;28;20130;-83
2023/04/30 01:11:32;;;;;;;25.58;14.05;;;;;;;;;;4958175;28;20043;-81
2023/04/30 01:14:16;;;;;;;25.17;13.90;;;;;;;;;;4960769;28;20500;-82
2023/04/30 01:16:47;;;;;;;26.70;13.43;;;;;;;;;;4959486;28;20063;-80
2023/04/30 01:19:35;;;;;;;30.65;14.93;;;;;;;;;;4984023;28;20051;-77
2023/04/30 01:22:03;;;;;;;34.15;14.75;;;;;;;;;;4965588;28;20062;-84
2023/04/30 01:24:55;;;;;;;31.05;14.45;;;;;;;;;;4974953;28;20057;-83
2023/04/30 01:27:40;;;;;;;23.88;13.52;;;;;;;;;;4954657;28;20526;-79
2023/04/30 01:30:07;;;;;;;24.27;13.43;;;;;;;;;;4965796;28;20044;-83
2023/04/30 01:32:34;;;;;;;22.20;12.98;;;;;;;;;;4936145;28;20048;-83
2023/04/30 01:35:01;;;;;;;24.10;13.45;;;;;;;;;;4937386;28;20564;-81
2023/04/30 01:37:41;;;;;;;25.48;13.40;;;;;;;;;;4936639;28;20075;-85
2023/04/30 01:40:26;;;;;;;21.70;12.48;;;;;;;;;;4952772;28;20074;-83
2023/04/30 01:43:05;;;;;;;20.80;12.53;;;;;;;;;;4936803;28;20083;-82
2023/04/30 01:45:37;;;;;;;22.45;12.30;;;;;;;;;;4921297;28;20390;-80
2023/04/30 01:48:21;;;;;;;21.00;11.63;;;;;;;;;;4934917;28;20078;-80
2023/04/30 01:50:59;;;;;;;18.58;11.27;;;;;;;;;;4933591;29;20063;-80
2023/04/30 01:53:46;;;;;;;21.42;10.63;;;;;;;;;;4934752;28;20127;-80
2023/04/30 01:56:36;;;;;;;16.77;9.73;;;;;;;;;;4956519;28;20123;-83
2023/04/30 01:59:04;;;;;;;16.63;9.98;;;;;;;;;;4934738;28;20090;-82
2023/04/30 02:01:31;;;;;;;17.92;8.48;;;;;;;;;;4932763;28;20054;-81
2023/04/30 02:03:58;;;;;;;16.25;8.50;;;;;;;;;;4933517;28;20536;-82
2023/04/30 02:06:29;;;;;;;17.60;8.40;;;;;;;;;;4934119;28;20040;-83
2023/04/30 02:09:01;;;;;;;15.43;8.48;;;;;;;;;;4921429;28;20050;-83
2023/04/30 02:11:29;;;;;;;19.13;8.32;;;;;;;;;;4946311;28;20070;-83
2023/04/30 02:13:55;;;;;;;14.15;7.95;;;;;;;;;;4938784;28;20066;-84
2023/04/30 02:16:22;;;;;;;15.30;8.05;;;;;;;;;;4935857;29;20054;-81
2023/04/30 02:18:49;;;;;;;14.70;8.05;;;;;;;;;;4935138;28;20055;-82
2023/04/30 02:21:17;;;;;;;16.73;8.70;;;;;;;;;;4955166;28;20042;-84
2023/04/30 02:23:43;;;;;;;19.00;8.55;;;;;;;;;;4937691;28;20468;-83
2023/04/30 02:26:10;;;;;;;13.38;7.25;;;;;;;;;;4954876;28;20066;-82
2023/04/30 02:28:37;;;;;;;13.68;7.90;;;;;;;;;;4942631;28;20039;-84
2023/04/30 02:31:04;;;;;;;19.35;7.85;;;;;;;;;;4956713;28;20043;-82
2023/04/30 02:33:30;;;;;;;14.20;7.57;;;;;;;;;;4957668;28;20246;-84
2023/04/30 02:35:58;;;;;;;12.82;7.07;;;;;;;;;;4970415;28;20078;-82
2023/04/30 02:38:24;;;;;;;17.55;7.18;;;;;;;;;;4952668;28;20050;-84
2023/04/30 02:40:53;;;;;;;14.38;6.85;;;;;;;;;;4953397;28;20239;-81
2023/04/30 02:43:20;;;;;;;11.35;7.10;;;;;;;;;;4953261;28;20122;-81
2023/04/30 02:45:47;;;;;;;21.42;7.55;;;;;;;;;;4953035;28;20054;-82
2023/04/30 02:48:14;;;;;;;17.80;7.38;;;;;;;;;;4952336;28;20055;-82
2023/04/30 02:50:40;;;;;;;14.98;7.00;;;;;;;;;;4951954;28;20438;-82
2023/04/30 02:53:07;;;;;;;10.70;6.22;;;;;;;;;;4951888;28;20432;-80
2023/04/30 02:55:34;;;;;;;14.57;6.65;;;;;;;;;;4950715;28;20094;-82
2023/04/30 02:58:00;;;;;;;12.00;6.18;;;;;;;;;;4950642;28;20059;-82
2023/04/30 03:00:27;;;;;;;18.58;6.35;;;;;;;;;;4953323;28;20058;-83
2023/04/30 03:02:54;;;;;;;14.57;6.60;;;;;;;;;;4953421;29;20051;-82
2023/04/30 03:05:22;;;;;;;14.82;6.63;;;;;;;;;;4934954;28;20047;-83
2023/04/30 03:07:49;;;;;;;14.23;6.45;;;;;;;;;;4967029;28;20499;-83
2023/04/30 03:10:17;;;;;;;13.45;6.15;;;;;;;;;;4967346;28;20050;-83
2023/04/30 03:12:44;;;;;;;11.93;6.57;;;;;;;;;;4971348;28;20051;-84
2023/04/30 03:15:11;;;;;;;11.40;5.63;;;;;;;;;;4941374;28;20078;-83
2023/04/30 03:17:37;;;;;;;14.10;6.03;;;;;;;;;;4970432;28;20505;-86
2023/04/30 03:20:04;;;;;;;14.82;6.03;;;;;;;;;;4969465;28;20368;-81
2023/04/30 03:22:31;;;;;;;15.88;5.97;;;;;;;;;;4971914;28;20134;-82
2023/04/30 03:24:57;;;;;;;15.93;5.80;;;;;;;;;;4954604;29;20126;-84
2023/04/30 03:27:24;;;;;;;12.10;6.07;;;;;;;;;;4955268;28;20122;-83
2023/04/30 03:29:51;;;;;;;18.02;6.18;;;;;;;;;;4953383;28;20064;-83
2023/04/30 03:32:17;;;;;;;13.13;6.05;;;;;;;;;;4921764;29;20055;-83
2023/04/30 03:34:45;;;;;;;15.02;6.43;;;;;;;;;;4935216;28;20200;-86
2023/04/30 03:37:11;;;;;;;12.07;6.00;;;;;;;;;;4952367;28;20075;-85
2023/04/30 03:39:38;;;;;;;14.70;6.38;;;;;;;;;;4936592;28;20044;-82
2023/04/30 03:42:04;;;;;;;14.77;6.20;;;;;;;;;;4936082;29;20047;-85
2023/04/30 03:44:31;;;;;;;15.50;5.80;;;;;;;;;;4939414;29;20130;-82
2023/04/30 03:46:57;;;;;;;12.00;5.95;;;;;;;;;;4952601;29;20182;-84
2023/04/30 03:49:24;;;;;;;15.50;5.70;;;;;;;;;;4938462;29;20047;-84
2023/04/30 03:51:51;;;;;;;15.20;5.90;;;;;;;;;;4919736;29;20067;-82
2023/04/30 03:54:17;;;;;;;11.43;5.65;;;;;;;;;;4933556;29;20043;-84
2023/04/30 03:56:45;;;;;;;16.65;5.72;;;;;;;;;;4944509;28;20534;-84
2023/04/30 03:59:12;;;;;;;10.63;5.57;;;;;;;;;;4934535;28;20040;-82
2023/04/30 04:01:38;;;;;;;13.15;5.85;;;;;;;;;;4933447;28;20070;-82
2023/04/30 04:04:06;;;;;;;11.93;5.95;;;;;;;;;;4935572;28;20095;-84
2023/04/30 04:06:33;;;;;;;13.50;5.78;;;;;;;;;;4952642;28;20042;-85
2023/04/30 04:09:00;;;;;;;14.93;6.30;;;;;;;;;;4934386;29;20046;-85
2023/04/30 04:11:26;;;;;;;18.02;6.35;;;;;;;;;;4934696;28;20065;-84
2023/04/30 04:13:54;;;;;;;19.33;6.60;;;;;;;;;;4936005;28;20063;-86
2023/04/30 04:16:21;;;;;;;16.08;7.00;;;;;;;;;;4936252;28;20111;-84
2023/04/30 04:18:48;;;;;;;13.90;6.30;;;;;;;;;;4936442;28;20052;-83
2023/04/30 04:21:15;;;;;;;12.52;5.93;;;;;;;;;;4937103;28;20051;-85
2023/04/30 04:23:41;;;;;;;13.93;5.55;;;;;;;;;;4937812;28;20286;-85
2023/04/30 04:26:09;;;;;;;13.85;6.45;;;;;;;;;;4936138;28;20044;-83
2023/04/30 04:28:36;;;;;;;16.75;6.82;;;;;;;;;;4938665;29;20054;-82
2023/04/30 04:31:03;;;;;;;14.20;6.47;;;;;;;;;;4959492;28;20302;-85
2023/04/30 04:33:30;;;;;;;12.45;6.30;;;;;;;;;;4956990;28;20484;-81
2023/04/30 04:35:57;;;;;;;12.57;6.65;;;;;;;;;;4951655;28;20048;-79
2023/04/30 04:38:27;;;;;;;15.88;6.95;;;;;;;;;;4969305;28;20182;-79
2023/04/30 04:40:54;;;;;;;17.00;7.63;;;;;;;;;;4924754;28;20055;-81
2023/04/30 04:43:21;;;;;;;18.38;7.35;;;;;;;;;;4935980;28;20063;-81
2023/04/30 04:45:48;;;;;;;21.05;8.07;;;;;;;;;;4943467;28;20059;-83
2023/04/30 04:48:15;;;;;;;16.65;7.38;;;;;;;;;;4947838;28;20535;-82
2023/04/30 04:50:42;;;;;;;13.68;8.02;;;;;;;;;;4945598;28;20483;-80
2023/04/30 04:53:08;;;;;;;17.42;7.05;;;;;;;;;;4918805;29;20063;-83
2023/04/30 04:55:35;;;;;;;17.95;7.00;;;;;;;;;;4944577;28;20048;-84
2023/04/30 04:58:02;;;;;;;14.07;6.93;;;;;;;;;;4944410;28;20047;-85
2023/04/30 05:00:29;;;;;;;19.35;6.95;;;;;;;;;;4947349;28;20056;-84
2023/04/30 05:02:55;;;;;;;20.33;7.70;;;;;;;;;;4948506;28;20349;-84
2023/04/30 05:05:22;;;;;;;18.08;7.00;;;;;;;;;;4953688;28;20051;-82
2023/04/30 05:07:51;;;;;;;19.02;6.93;;;;;;;;;;4953233;28;20051;-81
2023/04/30 05:10:20;;;;;;;16.20;6.80;;;;;;;;;;4945909;28;20143;-83
2023/04/30 05:12:47;;;;;;;20.10;6.70;;;;;;;;;;4956078;28;20063;-83
2023/04/30 05:15:14;;;;;;;18.98;7.03;;;;;;;;;;4954277;28;20350;-85
2023/04/30 05:17:40;;;;;;;17.65;6.30;;;;;;;;;;4938945;29;20047;-86
2023/04/30 05:20:08;;;;;;;16.88;6.93;;;;;;;;;;4953457;28;20055;-83
2023/04/30 05:22:34;;;;;;;15.52;6.10;;;;;;;;;;4936350;28;20074;-86
2023/04/30 05:25:01;;;;;;;20.25;5.80;;;;;;;;;;4968136;28;20066;-84
2023/04/30 05:27:27;;;;;;;19.52;6.60;;;;;;;;;;4934197;28;20048;-82
2023/04/30 05:29:54;;;;;;;13.10;5.75;;;;;;;;;;4943621;28;20061;-83
2023/04/30 05:32:22;;;;;;;13.52;5.40;;;;;;;;;;4947199;28;20053;-83
2023/04/30 05:34:48;;;;;;;17.00;5.05;;;;;;;;;;4936425;28;20224;-83
2023/04/30 05:37:16;;;;;;;10.57;4.97;;;;;;;;;;4958539;28;20040;-83
2023/04/30 05:39:43;;;;;;;17.27;5.93;;;;;;;;;;4967029;28;20050;-84
2023/04/30 05:42:09;;;;;;;14.55;5.10;;;;;;;;;;4933651;28;20048;-81
2023/04/30 05:44:36;;;;;;;18.77;5.55;;;;;;;;;;4950867;28;20047;-81
2023/04/30 05:47:03;;;;;;;13.73;4.57;;;;;;;;;;4952412;28;20047;-82
2023/04/30 05:49:29;;;;;;;15.00;4.90;;;;;;;;;;4932967;28;20047;-83
2023/04/30 05:51:56;;;;;;;15.57;5.53;;;;;;;;;;4950070;28;20047;-82
2023/04/30 05:54:22;;;;;;;17.45;4.72;;;;;;;;;;4952863;28;20055;-79
2023/04/30 05:56:49;;;;;;;18.00;5.60;;;;;;;;;;4947913;28;20134;-82
2023/04/30 05:59:16;;;;;;;13.00;5.30;;;;;;;;;;4948272;28;20039;-83
2023/04/30 06:01:42;;;;;;;13.30;5.22;;;;;;;;;;4954286;28;20040;-81
2023/04/30 06:04:09;;;;;;;11.20;5.63;;;;;;;;;;4931736;29;20106;-78
2023/04/30 06:06:36;;;;;;;14.82;5.72;;;;;;;;;;4923968;28;20047;-82
2023/04/30 06:09:03;;;;;;;14.57;5.65;;;;;;;;;;4946994;28;20309;-81
2023/04/30 06:11:30;;;;;;;14.73;5.72;;;;;;;;;;4941608;28;20047;-80
2023/04/30 06:13:58;;;;;;;16.40;6.30;;;;;;;;;;4957429;28;20130;-79
2023/04/30 06:16:25;;;;;;;15.95;6.22;;;;;;;;;;4950885;28;20047;-83
2023/04/30 06:18:52;;;;;;;14.90;6.15;;;;;;;;;;4959948;28;20086;-82
2023/04/30 06:21:19;;;;;;;14.73;6.93;;;;;;;;;;4947261;28;20054;-77
2023/04/30 06:23:46;;;;;;;13.77;5.57;;;;;;;;;;4936926;28;20134;-83
2023/04/30 06:26:14;;;;;;;15.88;7.03;;;;;;;;;;4939203;28;20114;-83
2023/04/30 06:28:40;;;;;;;11.68;5.93;;;;;;;;;;4933667;28;20062;-82
2023/04/30 06:31:07;;;;;;;18.10;6.05;;;;;;;;;;4938917;28;20051;-83
2023/04/30 06:33:34;;;;;;;19.75;6.57;;;;;;;;;;4935640;28;20110;-81
2023/04/30 06:36:00;;;;;;;20.30;6.40;;;;;;;;;;4937852;28;20064;-80
2023/04/30 06:38:27;;;;;;;15.15;6.03;;;;;;;;;;4951251;28;20039;-80
2023/04/30 06:40:54;;;;;;;10.77;5.78;;;;;;;;;;4932094;28;20066;-80
2023/04/30 06:43:20;;;;;;;19.35;6.65;;;;;;;;;;4919564;29;20120;-81
2023/04/30 06:45:47;;;;;;;17.20;5.70;;;;;;;;;;4939211;29;20055;-80
2023/04/30 06:48:14;;;;;;;16.35;5.63;;;;;;;;;;4957425;28;20059;-84
2023/04/30 06:50:43;;;;;;;16.55;5.50;;;;;;;;;;4949211;28;20172;-82
2023/04/30 06:53:11;;;;;;;16.13;5.53;;;;;;;;;;4951016;28;20135;-78
2023/04/30 06:55:38;;;;;;;11.73;5.47;;;;;;;;;;4949961;28;20435;-85
2023/04/30 06:58:04;;;;;;;12.10;4.93;;;;;;;;;;4936078;28;20085;-84
2023/04/30 07:00:31;;;;;;;10.77;5.10;;;;;;;;;;4915318;28;20191;-86
2023/04/30 07:03:02;;;;;;;15.07;5.30;;;;;;;;;;4946450;28;20145;-85
2023/04/30 07:05:29;;;;;;;20.95;5.47;;;;;;;;;;4928374;28;20115;-83
2023/04/30 07:07:56;;;;;;;12.07;5.22;;;;;;;;;;4943017;28;20163;-83
2023/04/30 07:10:23;;;;;;;9.98;4.75;;;;;;;;;;4948168;28;20550;-81
2023/04/30 07:12:49;;;;;;;14.27;5.10;;;;;;;;;;4935005;28;20047;-82
2023/04/30 07:15:16;;;;;;;16.00;4.88;;;;;;;;;;4953086;28;20047;-80
2023/04/30 07:17:42;;;;;;;13.55;4.78;;;;;;;;;;4956346;28;20082;-83
2023/04/30 07:20:09;;;;;;;10.18;5.38;;;;;;;;;;4962258;28;20051;-80
2023/04/30 07:22:36;;;;;;;15.50;5.97;;;;;;;;;;4961159;28;20047;-78
2023/04/30 07:25:03;;;;;;;15.00;5.70;;;;;;;;;;4941554;28;20159;-82
2023/04/30 07:27:29;;;;;;;11.60;5.38;;;;;;;;;;4959098;28;20032;-83
2023/04/30 07:29:56;;;;;;;12.73;4.95;;;;;;;;;;4941094;28;20477;-82
2023/04/30 07:32:25;;;;;;;13.43;5.40;;;;;;;;;;4953355;28;20072;-84
2023/04/30 07:34:52;;;;;;;15.77;5.50;;;;;;;;;;4972087;28;20050;-84
2023/04/30 07:37:19;;;;;;;12.60;5.50;;;;;;;;;;4938860;28;20532;-83
2023/04/30 07:39:46;;;;;;;12.30;5.82;;;;;;;;;;4936135;28;20075;-83
2023/04/30 07:42:12;;;;;;;18.58;5.72;;;;;;;;;;4939107;28;20056;-82
2023/04/30 07:44:40;;;;;;;16.10;5.28;;;;;;;;;;4935638;29;20075;-89
2023/04/30 07:47:06;;;;;;;13.77;5.78;;;;;;;;;;4962101;28;20110;-82
2023/04/30 07:49:33;;;;;;;17.13;5.63;;;;;;;;;;4953903;28;20367;-84
2023/04/30 07:52:00;;;;;;;12.27;5.45;;;;;;;;;;4929752;28;20054;-82
2023/04/30 07:54:26;;;;;;;13.88;4.80;;;;;;;;;;4953000;28;20062;-82
2023/04/30 07:56:53;;;;;;;16.75;5.70;;;;;;;;;;4954254;28;20047;-85
2023/04/30 07:59:23;;;;;;;18.02;5.15;;;;;;;;;;4951923;28;20047;-83
2023/04/30 08:01:52;;;;;;;11.85;4.85;;;;;;;;;;4951554;28;20057;-80
2023/04/30 08:04:18;;;;;;;11.95;4.68;;;;;;;;;;4969832;28;20058;-81
2023/04/30 08:06:45;;;;;;;11.52;4.85;;;;;;;;;;4944219;28;20460;-83
2023/04/30 08:09:11;;;;;;;16.17;4.75;;;;;;;;;;4935876;28;20063;-85
2023/04/30 08:11:38;;;;;;;11.05;4.47;;;;;;;;;;4954009;28;20046;-85
2023/04/30 08:14:05;;;;;;;12.35;4.80;;;;;;;;;;4970071;28;20553;-82
2023/04/30 08:16:32;;;;;;;10.63;4.57;;;;;;;;;;4954862;28;20055;-85
2023/04/30 08:18:59;;;;;;;12.45;4.28;;;;;;;;;;4957916;28;20051;-81
2023/04/30 08:21:27;;;;;;;11.07;4.10;;;;;;;;;;4967524;28;20123;-83
2023/04/30 08:23:53;;;;;;;12.23;4.35;;;;;;;;;;4968939;28;20138;-80
2023/04/30 08:26:20;;;;;;;14.82;3.90;;;;;;;;;;4954603;28;20111;-84
2023/04/30 08:28:48;;;;;;;8.70;4.03;;;;;;;;;;4951800;28;20072;-84
2023/04/30 08:31:18;;;;;;;9.75;4.00;;;;;;;;;;4959004;28;20098;-83
2023/04/30 08:33:44;;;;;;;12.18;4.72;;;;;;;;;;4953613;28;20051;-81
2023/04/30 08:36:11;;;;;;;14.23;4.95;;;;;;;;;;4952640;28;20138;-82
2023/04/30 08:38:38;;;;;;;11.45;4.88;;;;;;;;;;4954256;28;20055;-80
2023/04/30 08:41:10;;;;;;;13.90;4.78;;;;;;;;;;4937481;28;20511;-78
2023/04/30 08:43:36;;;;;;;12.45;4.18;;;;;;;;;;4965642;28;20519;-80
2023/04/30 08:46:04;;;;;;;11.55;4.70;;;;;;;;;;4954405;28;20114;-82
2023/04/30 08:48:31;;;;;;;12.30;5.10;;;;;;;;;;4933268;28;20142;-82
2023/04/30 08:51:01;;;;;;;11.57;4.45;;;;;;;;;;4950114;28;20052;-80
2023/04/30 08:53:33;;;;;;;11.30;4.65;;;;;;;;;;4949254;28;20668;-81
2023/04/30 08:56:00;;;;;;;9.77;4.18;;;;;;;;;;4953428;28;20071;-80
2023/04/30 08:58:26;;;;;;;15.80;4.65;;;;;;;;;;4943507;28;20075;-82
2023/04/30 09:00:53;;;;;;;9.18;4.28;;;;;;;;;;4939463;28;20055;-84
2023/04/30 09:03:22;;;;;;;12.50;4.07;;;;;;;;;;4951568;28;20118;-82
2023/04/30 09:05:49;;;;;;;8.73;3.47;;;;;;;;;;4953147;28;20047;-84
2023/04/30 09:08:17;;;;;;;7.40;3.72;;;;;;;;;;4953213;28;20049;-86
2023/04/30 09:10:46;;;;;;;11.32;3.63;;;;;;;;;;4937551;28;20055;-83
2023/04/30 09:13:12;;;;;;;12.38;4.18;;;;;;;;;;4957185;28;20446;-83
2023/04/30 09:15:40;;;;;;;10.25;3.55;;;;;;;;;;4957887;28;20099;-79
2023/04/30 09:18:07;;;;;;;12.90;4.05;;;;;;;;;;4948233;29;20604;-79
2023/04/30 09:20:34;;;;;;;15.23;3.75;;;;;;;;;;4943783;28;20051;-85
2023/04/30 09:23:05;;;;;;;12.80;3.60;;;;;;;;;;4944885;28;20105;-83
2023/04/30 09:25:37;;;;;;;17.23;4.40;;;;;;;;;;4959722;28;20114;-83
2023/04/30 09:28:08;;;;;;;8.50;3.97;;;;;;;;;;4953094;28;20047;-83
2023/04/30 09:30:35;;;;;;;10.25;3.42;;;;;;;;;;4942941;28;20049;-81
2023/04/30 09:33:03;;;;;;;11.48;3.53;;;;;;;;;;4950221;28;20043;-81
2023/04/30 09:35:34;;;;;;;10.55;4.00;;;;;;;;;;4956227;28;20078;-80
2023/04/30 09:38:01;;;;;;;12.15;3.13;;;;;;;;;;4944375;28;20063;-82
2023/04/30 09:40:31;;;;;;;11.68;3.70;;;;;;;;;;4950736;28;20039;-81
2023/04/30 09:42:59;;;;;;;10.45;3.20;;;;;;;;;;4938286;28;20142;-82
2023/04/30 09:45:25;;;;;;;11.60;3.60;;;;;;;;;;4938438;28;20126;-79
2023/04/30 09:47:52;;;;;;;8.18;3.38;;;;;;;;;;4932400;28;20077;-83
2023/04/30 09:50:25;;;;;;;11.70;3.45;;;;;;;;;;4948637;28;20053;-86
2023/04/30 09:52:52;;;;;;;11.05;3.38;;;;;;;;;;4931655;28;20047;-82
2023/04/30 09:55:20;;;;;;;10.40;2.78;;;;;;;;;;4943770;28;20412;-81
2023/04/30 09:57:47;;;;;;;10.15;2.60;;;;;;;;;;4951480;28;20106;-81
2023/04/30 10:00:14;;;;;;;11.63;3.13;;;;;;;;;;4928689;28;20332;-81
2023/04/30 10:02:41;;;;;;;10.13;2.65;;;;;;;;;;4939196;28;20108;-81
2023/04/30 10:05:07;;;;;;;9.35;2.70;;;;;;;;;;4948071;28;20239;-83
2023/04/30 10:07:35;;;;;;;6.35;2.20;;;;;;;;;;4963942;28;20051;-84
2023/04/30 10:10:05;;;;;;;9.27;2.92;;;;;;;;;;4964151;28;20516;-82
2023/04/30 10:12:35;;;;;;;8.05;2.83;;;;;;;;;;4952501;28;20712;-82
2023/04/30 10:15:07;;;;;;;12.18;3.00;;;;;;;;;;4946420;28;20171;-83
2023/04/30 10:17:39;;;;;;;7.43;2.35;;;;;;;;;;4937850;28;20296;-82
2023/04/30 10:20:08;;;;;;;11.30;2.88;;;;;;;;;;4945950;28;20051;-81
2023/04/30 10:22:35;;;;;;;9.35;2.78;;;;;;;;;;4927228;28;20043;-80
2023/04/30 10:25:02;;;;;;;4.65;2.10;;;;;;;;;;4927280;28;20057;-81
2023/04/30 10:27:29;;;;;;;8.30;2.53;;;;;;;;;;4935538;28;20142;-79
2023/04/30 10:29:56;;;;;;;5.68;2.22;;;;;;;;;;4940910;28;20056;-79
2023/04/30 10:32:23;;;;;;;8.68;2.47;;;;;;;;;;4936022;28;20193;-81
2023/04/30 10:34:56;;;;;;;7.45;2.50;;;;;;;;;;4945450;28;20058;-80
2023/04/30 10:37:22;;;;;;;5.13;2.20;;;;;;;;;;4947181;28;20061;-79
2023/04/30 10:39:50;;;;;;;8.55;2.30;;;;;;;;;;4948053;28;20051;-80
2023/04/30 10:42:16;;;;;;;10.23;2.22;;;;;;;;;;4949196;28;20139;-79
2023/04/30 10:44:43;;;;;;;7.68;2.40;;;;;;;;;;4948950;28;21061;-83
2023/04/30 10:47:09;;;;;;;5.78;2.25;;;;;;;;;;4944652;28;20117;-81
2023/04/30 10:49:36;;;;;;;7.75;2.42;;;;;;;;;;4930580;29;20050;-83
2023/04/30 10:52:03;;;;;;;7.85;2.50;;;;;;;;;;4935576;28;20051;-83
2023/04/30 10:54:31;;;;;;;8.43;2.42;;;;;;;;;;4947021;28;20051;-82
2023/04/30 10:57:13;;;;;;;7.45;2.55;;;;;;;;;;4933795;28;20122;-84
2023/04/30 10:59:45;;;;;;;6.10;2.00;;;;;;;;;;4925793;29;20048;-83
2023/04/30 11:02:14;;;;;;;5.13;2.13;;;;;;;;;;4937276;28;20425;-84
2023/04/30 11:05:00;;;;;;;5.75;2.08;;;;;;;;;;4969796;28;20415;-82
2023/04/30 11:07:27;;;;;;;;;;;;;;;;;;4919552;28;20062;-83
2023/04/30 11:09:56;;;;;;;8.55;2.25;;;;;;;;;;4920887;28;19929;-82
2023/04/30 11:12:27;;;;;;;6.93;2.20;;;;;;;;;;4938738;28;20136;-81
2023/04/30 11:15:00;;;;;;;7.53;2.08;;;;;;;;;;4958007;28;20055;-82
2023/04/30 11:17:27;;;;;;;9.95;2.22;;;;;;;;;;4929247;28;20078;-82
2023/04/30 11:19:58;;;;;;;5.10;2.17;;;;;;;;;;4960127;28;20107;-81
2023/04/30 11:22:25;;;;;;;5.70;2.05;;;;;;;;;;4940592;28;20097;-83
2023/04/30 11:24:58;;;;;;;11.00;2.92;;;;;;;;;;4931621;28;20067;-80
2023/04/30 11:27:28;;;;;;;4.78;2.13;;;;;;;;;;4934903;29;20064;-82
2023/04/30 11:29:55;;;;;;;9.52;2.40;;;;;;;;;;4946249;28;20051;-82
2023/04/30 11:32:23;;;;;;;6.82;2.63;;;;;;;;;;4939853;29;20078;-85
2023/04/30 11:34:50;;;;;;;5.38;2.50;;;;;;;;;;4948148;28;20135;-84
2023/04/30 11:37:29;;;;;;;10.02;2.40;;;;;;;;;;4939111;28;20548;-84
2023/04/30 11:40:02;;;;;;;7.03;2.53;;;;;;;;;;4953717;28;20150;-82
2023/04/30 11:42:30;;;;;;;7.25;2.72;;;;;;;;;;4952351;28;20058;-84
2023/04/30 11:45:07;;;;;;;4.65;2.22;;;;;;;;;;4957011;28;20058;-84
2023/04/30 11:47:40;;;;;;;5.53;2.20;;;;;;;;;;4954428;28;20589;-84
2023/04/30 11:50:08;;;;;;;8.75;2.08;;;;;;;;;;4942618;28;20204;-81
2023/04/30 11:52:35;;;;;;;8.20;2.47;;;;;;;;;;4943521;28;20058;-84
2023/04/30 11:55:28;;;;;;;5.95;1.88;;;;;;;;;;4962575;28;20142;-83
2023/04/30 11:57:57;;;;;;;7.25;2.30;;;;;;;;;;4953120;28;20075;-82
2023/04/30 12:00:28;;;;;;;7.32;2.20;;;;;;;;;;4940426;29;20058;-83
2023/04/30 12:02:55;;;;;;;7.07;2.58;;;;;;;;;;4949320;28;20059;-82
2023/04/30 12:05:23;;;;;;;8.38;2.35;;;;;;;;;;4924021;29;20059;-84
2023/04/30 12:07:50;;;;;;;7.85;2.35;;;;;;;;;;4950988;28;20047;-83
2023/04/30 12:10:19;;;;;;;8.50;2.75;;;;;;;;;;4942114;28;20546;-83
2023/04/30 12:12:46;;;;;;;4.40;2.10;;;;;;;;;;4952954;28;26770;-82
2023/04/30 12:15:18;;;;;;;7.80;2.05;;;;;;;;;;4956195;28;20154;-82
2023/04/30 12:17:45;;;;;;;6.18;2.10;;;;;;;;;;4956784;28;20050;-83
2023/04/30 12:20:14;;;;;;;7.03;2.22;;;;;;;;;;4971423;28;20115;-88
2023/04/30 12:22:41;;;;;;;8.63;2.60;;;;;;;;;;4955930;28;20115;-83
2023/04/30 12:25:12;;;;;;;8.18;2.50;;;;;;;;;;4948786;28;20512;-84
2023/04/30 12:27:39;;;;;;;8.27;2.50;;;;;;;;;;4941962;28;20051;-81
2023/04/30 12:30:07;;;;;;;7.90;2.33;;;;;;;;;;4958593;28;20043;-82
2023/04/30 12:32:38;;;;;;;6.72;2.60;;;;;;;;;;4941156;28;20392;-83
2023/04/30 12:35:05;;;;;;;7.43;2.38;;;;;;;;;;4939329;28;20126;-82
2023/04/30 12:37:32;;;;;;;4.03;2.10;;;;;;;;;;4943232;28;20147;-82
2023/04/30 12:39:59;;;;;;;7.65;2.17;;;;;;;;;;4960743;28;20059;-83
2023/04/30 12:42:31;;;;;;;5.85;2.20;;;;;;;;;;4956860;28;20207;-83
2023/04/30 12:44:58;;;;;;;6.85;2.05;;;;;;;;;;4952811;28;20070;-85
2023/04/30 12:47:25;;;;;;;5.60;2.22;;;;;;;;;;4951055;28;20043;-83
2023/04/30 12:49:52;;;;;;;4.85;2.00;;;;;;;;;;4965893;28;20085;-78
2023/04/30 12:52:21;;;;;;;6.57;2.25;;;;;;;;;;4950248;28;20052;-82
2023/04/30 12:54:48;;;;;;;5.07;2.20;;;;;;;;;;4968271;28;20052;-85
2023/04/30 12:57:15;;;;;;;4.53;1.92;;;;;;;;;;4957477;28;20281;-81
2023/04/30 12:59:50;;;;;;;6.10;2.20;;;;;;;;;;4954395;28;20070;-84
2023/04/30 13:02:17;;;;;;;4.35;1.73;;;;;;;;;;4959515;28;20285;-85
2023/04/30 13:04:44;;;;;;;4.22;1.90;;;;;;;;;;4965683;28;20385;-84
2023/04/30 13:07:11;;;;;;;5.40;1.90;;;;;;;;;;4949332;28;20288;-80
2023/04/30 13:09:37;;;;;;;7.57;2.10;;;;;;;;;;4938973;28;20056;-81
2023/04/30 13:12:05;;;;;;;7.93;2.33;;;;;;;;;;4941132;28;20071;-84
2023/04/30 13:14:31;;;;;;;5.15;1.90;;;;;;;;;;4957769;28;20107;-85
2023/04/30 13:16:58;;;;;;;4.85;1.92;;;;;;;;;;4941111;28;20119;-84
2023/04/30 13:19:25;;;;;;;6.13;1.70;;;;;;;;;;4938078;28;20082;-82
2023/04/30 13:21:51;;;;;;;4.03;1.70;;;;;;;;;;4968270;28;20058;-87
2023/04/30 13:24:18;;;;;;;4.32;1.52;;;;;;;;;;4954076;28;20594;-87
2023/04/30 13:26:44;;;;;;;5.45;1.92;;;;;;;;;;4961729;28;20082;-84
2023/04/30 13:29:11;;;;;;;9.10;1.75;;;;;;;;;;4945722;28;20424;-85
2023/04/30 13:31:37;;;;;;;4.53;1.77;;;;;;;;;;4946437;28;20463;-87
2023/04/30 13:34:05;;;;;;;4.10;1.70;;;;;;;;;;4952136;29;20044;-84
2023/04/30 13:36:31;;;;;;;8.88;1.77;;;;;;;;;;4944466;28;20564;-86
2023/04/30 13:38:58;;;;;;;7.63;1.95;;;;;;;;;;4945714;28;20051;-86
2023/04/30 13:41:25;;;;;;;4.85;1.75;;;;;;;;;;4953289;28;20058;-87
2023/04/30 13:43:52;;;;;;;5.20;1.75;;;;;;;;;;4949615;28;20504;-87
2023/04/30 13:46:19;;;;;;;4.22;1.70;;;;;;;;;;4948410;28;20428;-86
2023/04/30 13:48:48;;;;;;;4.75;1.63;;;;;;;;;;4954885;28;20044;-85
2023/04/30 13:51:15;;;;;;;3.60;1.30;;;;;;;;;;4949869;28;20114;-85
2023/04/30 13:53:42;;;;;;;5.95;1.60;;;;;;;;;;4949531;28;20069;-87
2023/04/30 13:56:09;;;;;;;4.10;1.30;;;;;;;;;;4955453;28;20050;-85
2023/04/30 13:58:35;;;;;;;5.00;1.30;;;;;;;;;;4970788;28;20048;-86
2023/04/30 14:01:02;;;;;;;4.85;1.52;;;;;;;;;;4951035;28;20055;-82
2023/04/30 14:03:28;;;;;;;4.53;1.45;;;;;;;;;;4965639;28;20067;-85
2023/04/30 14:05:56;;;;;;;6.03;1.70;;;;;;;;;;4945057;28;20294;-80
2023/04/30 14:08:23;;;;;;;3.85;1.35;;;;;;;;;;4967465;28;20055;-81
2023/04/30 14:10:50;;;;;;;6.50;1.40;;;;;;;;;;4933891;28;20092;-75
2023/04/30 14:13:16;;;;;;;10.10;1.73;;;;;;;;;;4931207;28;20050;-77
2023/04/30 14:15:43;;;;;;;5.95;1.75;;;;;;;;;;4950540;28;20106;-78
2023/04/30 14:18:09;;;;;;;9.82;1.98;;;;;;;;;;4946941;28;20055;-75
2023/04/30 14:20:36;;;;;;;4.32;1.70;;;;;;;;;;4932790;28;20211;-80
2023/04/30 14:23:03;;;;;;;7.07;1.63;;;;;;;;;;4945982;28;20052;-78
2023/04/30 14:25:29;;;;;;;5.75;1.50;;;;;;;;;;4932129;28;20048;-79
2023/04/30 14:27:56;;;;;;;3.75;1.60;;;;;;;;;;4941908;28;20044;-77
2023/04/30 14:30:22;;;;;;;3.58;1.30;;;;;;;;;;4959581;28;20078;-80
2023/04/30 14:32:49;;;;;;;6.38;1.50;;;;;;;;;;4947448;28;20043;-84
2023/04/30 14:35:16;;;;;;;5.88;1.88;;;;;;;;;;4955600;28;20110;-84
2023/04/30 14:37:42;;;;;;;7.35;1.98;;;;;;;;;;4953543;28;20296;-73